sensor_id;sensor_type;location;lat;lon;timestamp;pressure;altitude;pressure_sealevel;temperature;humidity
18765;BME280;9511;54.242;12.448;2023-02-14T04:05:50;103564.66;;;4.15;86.53
18765;BME280;9511;54.242;12.448;2023-02-14T04:08:24;103562.19;;;4.17;86.67
18765;BME280;9511;54.242;12.448;2023-02-14T04:10:52;103562.50;;;4.11;86.59
18765;BME280;9511;54.242;12.448;2023-02-14T04:13:20;103562.41;;;4.01;86.90
18765;BME280;9511;54.242;12.448;2023-02-14T04:15:48;103564.53;;;4.05;87.21
18765;BME280;9511;54.242;12.448;2023-02-14T04:18:15;103566.72;;;4.00;87.63
18765;BME280;9511;54.242;12.448;2023-02-14T04:21:02;103561.19;;;3.97;87.25
18765;BME280;9511;54.242;12.448;2023-02-14T04:23:29;103565.66;;;3.98;86.81
18765;BME280;9511;54.242;12.448;2023-02-14T04:25:56;103565.50;;;3.97;86.80
18765;BME280;9511;54.242;12.448;2023-02-14T04:28:23;103568.91;;;3.96;86.73
18765;BME280;9511;54.242;12.448;2023-02-14T04:30:51;103567.63;;;4.01;86.97
18765;BME280;9511;54.242;12.448;2023-02-14T04:33:18;103569.97;;;3.98;86.74
18765;BME280;9511;54.242;12.448;2023-02-14T04:35:46;103565.19;;;4.03;86.60
18765;BME280;9511;54.242;12.448;2023-02-14T04:38:15;103567.81;;;4.03;86.42
18765;BME280;9511;54.242;12.448;2023-02-14T04:40:42;103557.47;;;4.04;86.74
18765;BME280;9511;54.242;12.448;2023-02-14T04:43:09;103558.25;;;4.03;86.17
18765;BME280;9511;54.242;12.448;2023-02-14T04:45:37;103551.00;;;4.00;86.26
18765;BME280;9511;54.242;12.448;2023-02-14T04:48:04;103555.19;;;3.98;86.52
18765;BME280;9511;54.242;12.448;2023-02-14T04:50:31;103554.41;;;3.99;86.17
18765;BME280;9511;54.242;12.448;2023-02-14T04:52:59;103564.09;;;4.00;85.77
18765;BME280;9511;54.242;12.448;2023-02-14T04:55:27;103561.34;;;3.99;85.76
18765;BME280;9511;54.242;12.448;2023-02-14T04:57:54;103556.22;;;4.00;86.38
18765;BME280;9511;54.242;12.448;2023-02-14T05:00:22;103544.84;;;4.00;86.16
18765;BME280;9511;54.242;12.448;2023-02-14T05:02:49;103548.56;;;4.02;86.36
18765;BME280;9511;54.242;12.448;2023-02-14T05:05:16;103549.28;;;4.01;86.04
18765;BME280;9511;54.242;12.448;2023-02-14T05:07:44;103552.88;;;4.02;86.23
18765;BME280;9511;54.242;12.448;2023-02-14T05:10:13;103551.91;;;4.01;86.21
18765;BME280;9511;54.242;12.448;2023-02-14T05:12:42;103549.75;;;4.06;86.33
18765;BME280;9511;54.242;12.448;2023-02-14T05:15:09;103547.63;;;4.02;86.08
18765;BME280;9511;54.242;12.448;2023-02-14T05:17:36;103549.47;;;4.03;86.19
18765;BME280;9511;54.242;12.448;2023-02-14T05:20:05;103545.94;;;4.02;86.06
18765;BME280;9511;54.242;12.448;2023-02-14T05:22:32;103542.41;;;4.02;86.46
18765;BME280;9511;54.242;12.448;2023-02-14T05:25:00;103543.91;;;3.99;86.77
18765;BME280;9511;54.242;12.448;2023-02-14T05:27:27;103553.19;;;3.96;86.62
18765;BME280;9511;54.242;12.448;2023-02-14T05:29:56;103541.16;;;3.98;86.42
18765;BME280;9511;54.242;12.448;2023-02-14T05:32:23;103540.38;;;3.99;86.50
18765;BME280;9511;54.242;12.448;2023-02-14T05:34:50;103542.88;;;3.97;86.42
18765;BME280;9511;54.242;12.448;2023-02-14T05:37:17;103548.88;;;3.96;86.93
18765;BME280;9511;54.242;12.448;2023-02-14T05:39:45;103535.00;;;3.97;86.59
18765;BME280;9511;54.242;12.448;2023-02-14T05:42:12;103534.88;;;3.96;86.59
18765;BME280;9511;54.242;12.448;2023-02-14T05:44:39;103538.41;;;3.96;86.80
18765;BME280;9511;54.242;12.448;2023-02-14T05:47:08;103541.78;;;3.95;86.85
18765;BME280;9511;54.242;12.448;2023-02-14T05:49:35;103540.44;;;3.90;87.24
18765;BME280;9511;54.242;12.448;2023-02-14T05:52:03;103545.94;;;3.93;87.28
18765;BME280;9511;54.242;12.448;2023-02-14T05:54:30;103549.34;;;3.92;86.95
18765;BME280;9511;54.242;12.448;2023-02-14T05:56:57;103553.03;;;3.94;86.97
18765;BME280;9511;54.242;12.448;2023-02-14T05:59:25;103551.66;;;3.89;87.22
18765;BME280;9511;54.242;12.448;2023-02-14T06:01:52;103551.38;;;3.86;87.51
18765;BME280;9511;54.242;12.448;2023-02-14T06:04:21;103564.75;;;3.89;87.40
18765;BME280;9511;54.242;12.448;2023-02-14T06:06:50;103565.06;;;3.92;87.78
18765;BME280;9511;54.242;12.448;2023-02-14T06:09:17;103558.13;;;3.93;87.55
18765;BME280;9511;54.242;12.448;2023-02-14T06:11:45;103559.03;;;3.93;88.00
18765;BME280;9511;54.242;12.448;2023-02-14T06:14:12;103558.47;;;3.87;87.98
18765;BME280;9511;54.242;12.448;2023-02-14T06:16:39;103560.94;;;3.86;88.22
18765;BME280;9511;54.242;12.448;2023-02-14T06:19:07;103560.16;;;3.87;88.45
18765;BME280;9511;54.242;12.448;2023-02-14T06:21:35;103555.84;;;3.87;88.02
18765;BME280;9511;54.242;12.448;2023-02-14T06:24:03;103549.53;;;3.85;88.77
18765;BME280;9511;54.242;12.448;2023-02-14T06:26:30;103551.38;;;3.86;88.62
18765;BME280;9511;54.242;12.448;2023-02-14T06:28:58;103551.38;;;3.86;88.32
18765;BME280;9511;54.242;12.448;2023-02-14T06:31:25;103557.09;;;3.82;88.33
18765;BME280;9511;54.242;12.448;2023-02-14T06:33:53;103560.78;;;3.84;88.50
18765;BME280;9511;54.242;12.448;2023-02-14T06:36:21;103557.88;;;3.81;87.91
18765;BME280;9511;54.242;12.448;2023-02-14T06:38:49;103555.38;;;3.83;87.57
18765;BME280;9511;54.242;12.448;2023-02-14T06:41:17;103559.69;;;3.82;87.86
18765;BME280;9511;54.242;12.448;2023-02-14T06:43:45;103554.28;;;3.89;87.69
18765;BME280;9511;54.242;12.448;2023-02-14T06:46:14;103554.13;;;3.96;88.30
18765;BME280;9511;54.242;12.448;2023-02-14T06:48:42;103546.41;;;3.98;88.31
18765;BME280;9511;54.242;12.448;2023-02-14T06:51:10;103555.31;;;4.00;88.00
18765;BME280;9511;54.242;12.448;2023-02-14T06:53:38;103555.19;;;3.98;88.05
18765;BME280;9511;54.242;12.448;2023-02-14T06:56:07;103552.09;;;4.03;87.87
18765;BME280;9511;54.242;12.448;2023-02-14T06:58:34;103549.75;;;4.06;87.74
18765;BME280;9511;54.242;12.448;2023-02-14T07:01:02;103550.19;;;4.10;87.35
18765;BME280;9511;54.242;12.448;2023-02-14T07:03:29;103558.19;;;4.12;87.50
18765;BME280;9511;54.242;12.448;2023-02-14T07:05:59;103558.84;;;4.09;87.07
18765;BME280;9511;54.242;12.448;2023-02-14T07:08:26;103572.53;;;4.07;87.54
18765;BME280;9511;54.242;12.448;2023-02-14T07:10:54;103564.41;;;4.04;87.64
18765;BME280;9511;54.242;12.448;2023-02-14T07:13:24;103565.47;;;4.06;87.80
18765;BME280;9511;54.242;12.448;2023-02-14T07:15:52;103567.03;;;4.04;87.69
18765;BME280;9511;54.242;12.448;2023-02-14T07:18:19;103564.41;;;4.04;87.35
18765;BME280;9511;54.242;12.448;2023-02-14T07:20:47;103565.78;;;4.09;87.09
18765;BME280;9511;54.242;12.448;2023-02-14T07:23:15;103573.78;;;4.10;86.95
18765;BME280;9511;54.242;12.448;2023-02-14T07:25:42;103572.38;;;4.14;86.46
18765;BME280;9511;54.242;12.448;2023-02-14T07:28:10;103574.50;;;4.18;86.02
18765;BME280;9511;54.242;12.448;2023-02-14T07:30:39;103568.06;;;4.14;85.40
18765;BME280;9511;54.242;12.448;2023-02-14T07:33:06;103576.25;;;4.09;85.92
18765;BME280;9511;54.242;12.448;2023-02-14T07:35:33;103576.72;;;4.05;86.03
18765;BME280;9511;54.242;12.448;2023-02-14T07:38:01;103571.19;;;4.02;86.16
18765;BME280;9511;54.242;12.448;2023-02-14T07:40:28;103570.09;;;3.99;86.25
18765;BME280;9511;54.242;12.448;2023-02-14T07:42:56;103571.34;;;3.94;86.62
18765;BME280;9511;54.242;12.448;2023-02-14T07:45:24;103572.91;;;3.92;86.31
18765;BME280;9511;54.242;12.448;2023-02-14T07:47:54;103572.59;;;3.89;86.36
18765;BME280;9511;54.242;12.448;2023-02-14T07:50:21;103565.50;;;3.97;86.51
18765;BME280;9511;54.242;12.448;2023-02-14T07:52:49;103567.94;;;4.04;85.99
18765;BME280;9511;54.242;12.448;2023-02-14T07:55:17;103566.72;;;4.00;86.00
18765;BME280;9511;54.242;12.448;2023-02-14T07:57:46;103567.03;;;4.04;86.13
18765;BME280;9511;54.242;12.448;2023-02-14T08:00:14;103565.47;;;4.06;85.74
18765;BME280;9511;54.242;12.448;2023-02-14T08:02:42;103564.75;;;3.98;85.62
18765;BME280;9511;54.242;12.448;2023-02-14T08:05:10;103561.00;;;4.05;85.40
18765;BME280;9511;54.242;12.448;2023-02-14T08:07:37;103569.19;;;4.08;85.84
18765;BME280;9511;54.242;12.448;2023-02-14T08:10:06;103562.38;;;4.10;85.30
18765;BME280;9511;54.242;12.448;2023-02-14T08:12:33;103562.66;;;4.13;85.73
18765;BME280;9511;54.242;12.448;2023-02-14T08:15:20;103567.72;;;4.20;85.70
18765;BME280;9511;54.242;12.448;2023-02-14T08:18:05;103559.56;;;4.17;85.28
18765;BME280;9511;54.242;12.448;2023-02-14T08:20:34;103561.41;;;4.18;84.81
18765;BME280;9511;54.242;12.448;2023-02-14T08:23:01;103563.28;;;4.19;84.74
18765;BME280;9511;54.242;12.448;2023-02-14T08:25:28;103563.69;;;4.23;84.87
18765;BME280;9511;54.242;12.448;2023-02-14T08:27:56;103571.88;;;4.18;84.41
18765;BME280;9511;54.242;12.448;2023-02-14T08:30:23;103567.41;;;4.17;84.82
18765;BME280;9511;54.242;12.448;2023-02-14T08:32:50;103570.63;;;4.23;85.10
18765;BME280;9511;54.242;12.448;2023-02-14T08:35:19;103569.13;;;4.16;84.72
18765;BME280;9511;54.242;12.448;2023-02-14T08:37:47;103571.25;;;4.20;84.96
18765;BME280;9511;54.242;12.448;2023-02-14T08:40:15;103566.47;;;4.25;85.30
18765;BME280;9511;54.242;12.448;2023-02-14T08:42:42;103569.03;;;4.34;85.30
18765;BME280;9511;54.242;12.448;2023-02-14T08:45:09;103571.06;;;4.28;85.00
18765;BME280;9511;54.242;12.448;2023-02-14T08:47:36;103571.13;;;4.19;85.00
18765;BME280;9511;54.242;12.448;2023-02-14T08:50:07;103572.47;;;4.24;85.54
18765;BME280;9511;54.242;12.448;2023-02-14T08:52:35;103565.50;;;4.33;85.52
18765;BME280;9511;54.242;12.448;2023-02-14T08:55:04;103565.63;;;4.35;85.75
18765;BME280;9511;54.242;12.448;2023-02-14T08:57:31;103567.66;;;4.29;85.91
18765;BME280;9511;54.242;12.448;2023-02-14T08:59:58;103570.78;;;4.24;85.74
18765;BME280;9511;54.242;12.448;2023-02-14T09:02:26;103570.34;;;4.20;85.55
18765;BME280;9511;54.242;12.448;2023-02-14T09:04:53;103568.19;;;4.16;85.49
18765;BME280;9511;54.242;12.448;2023-02-14T09:07:20;103567.22;;;4.24;85.62
18765;BME280;9511;54.242;12.448;2023-02-14T09:09:48;103568.50;;;4.19;85.06
18765;BME280;9511;54.242;12.448;2023-02-14T09:12:16;103572.66;;;4.17;85.63
18765;BME280;9511;54.242;12.448;2023-02-14T09:14:44;103584.03;;;4.26;85.45
18765;BME280;9511;54.242;12.448;2023-02-14T09:17:12;103582.00;;;4.32;85.37
18765;BME280;9511;54.242;12.448;2023-02-14T09:19:40;103581.41;;;4.26;85.58
18765;BME280;9511;54.242;12.448;2023-02-14T09:22:09;103583.91;;;4.24;85.18
18765;BME280;9511;54.242;12.448;2023-02-14T09:24:38;103578.94;;;4.28;85.27
18765;BME280;9511;54.242;12.448;2023-02-14T09:27:06;103585.34;;;4.40;85.15
18765;BME280;9511;54.242;12.448;2023-02-14T09:29:35;103587.91;;;4.48;84.47
18765;BME280;9511;54.242;12.448;2023-02-14T09:32:03;103587.00;;;4.48;84.09
18765;BME280;9511;54.242;12.448;2023-02-14T09:34:33;103575.78;;;4.40;84.40
18765;BME280;9511;54.242;12.448;2023-02-14T09:37:18;103580.34;;;4.51;84.22
18765;BME280;9511;54.242;12.448;2023-02-14T09:40:04;103582.69;;;4.48;84.03
18765;BME280;9511;54.242;12.448;2023-02-14T09:42:52;103585.63;;;4.43;83.56
18765;BME280;9511;54.242;12.448;2023-02-14T09:45:25;103579.66;;;4.35;83.20
18765;BME280;9511;54.242;12.448;2023-02-14T09:47:56;103584.41;;;4.39;83.38
18765;BME280;9511;54.242;12.448;2023-02-14T09:50:29;103581.00;;;4.40;82.95
18765;BME280;9511;54.242;12.448;2023-02-14T09:53:02;103584.13;;;4.36;83.17
18765;BME280;9511;54.242;12.448;2023-02-14T09:55:38;103588.84;;;4.49;83.63
18765;BME280;9511;54.242;12.448;2023-02-14T09:58:14;103583.94;;;4.43;83.65
18765;BME280;9511;54.242;12.448;2023-02-14T10:00:48;103585.44;;;4.50;83.77
18765;BME280;9511;54.242;12.448;2023-02-14T10:03:40;103583.25;;;4.55;83.66
18765;BME280;9511;54.242;12.448;2023-02-14T10:06:21;103584.09;;;4.64;83.45
18765;BME280;9511;54.242;12.448;2023-02-14T10:08:59;103583.94;;;4.71;83.48
18765;BME280;9511;54.242;12.448;2023-02-14T10:11:28;103587.38;;;4.61;83.17
18765;BME280;9511;54.242;12.448;2023-02-14T10:14:00;103575.97;;;4.61;82.94
18765;BME280;9511;54.242;12.448;2023-02-14T10:16:36;103569.84;;;4.51;83.39
18765;BME280;9511;54.242;12.448;2023-02-14T10:19:14;103569.63;;;4.59;83.39
18765;BME280;9511;54.242;12.448;2023-02-14T10:21:48;103561.78;;;4.59;83.12
18765;BME280;9511;54.242;12.448;2023-02-14T10:24:20;103564.41;;;4.59;83.29
18765;BME280;9511;54.242;12.448;2023-02-14T10:26:49;103567.03;;;4.59;82.99
18765;BME280;9511;54.242;12.448;2023-02-14T10:29:17;103569.47;;;4.66;83.31
18765;BME280;9511;54.242;12.448;2023-02-14T10:31:51;103568.03;;;4.69;83.02
18765;BME280;9511;54.242;12.448;2023-02-14T10:34:26;103581.00;;;4.68;82.42
18765;BME280;9511;54.242;12.448;2023-02-14T10:37:14;103581.47;;;4.64;82.63
18765;BME280;9511;54.242;12.448;2023-02-14T10:39:57;103583.19;;;4.63;82.42
18765;BME280;9511;54.242;12.448;2023-02-14T10:42:35;103574.72;;;4.66;82.33
18765;BME280;9511;54.242;12.448;2023-02-14T10:45:15;103568.19;;;4.71;82.38
18765;BME280;9511;54.242;12.448;2023-02-14T10:47:51;103565.69;;;4.53;81.84
18765;BME280;9511;54.242;12.448;2023-02-14T10:50:26;103568.44;;;4.28;82.58
18765;BME280;9511;54.242;12.448;2023-02-14T10:53:02;103573.25;;;4.50;83.09
18765;BME280;9511;54.242;12.448;2023-02-14T10:55:43;103564.22;;;4.66;82.69
18765;BME280;9511;54.242;12.448;2023-02-14T10:58:16;103566.09;;;4.58;81.72
18765;BME280;9511;54.242;12.448;2023-02-14T11:00:51;103563.72;;;4.70;82.36
18765;BME280;9511;54.242;12.448;2023-02-14T11:03:21;103571.56;;;4.70;82.19
18765;BME280;9511;54.242;12.448;2023-02-14T11:05:49;103574.00;;;4.77;82.44
18765;BME280;9511;54.242;12.448;2023-02-14T11:08:23;103569.69;;;4.77;82.00
18765;BME280;9511;54.242;12.448;2023-02-14T11:10:51;103564.06;;;4.64;81.47
18765;BME280;9511;54.242;12.448;2023-02-14T11:13:26;103565.41;;;4.69;81.91
18765;BME280;9511;54.242;12.448;2023-02-14T11:15:58;103554.75;;;4.76;81.64
18765;BME280;9511;54.242;12.448;2023-02-14T11:18:27;103557.63;;;4.79;81.71
18765;BME280;9511;54.242;12.448;2023-02-14T11:20:59;103567.56;;;4.73;82.07
18765;BME280;9511;54.242;12.448;2023-02-14T11:23:31;103561.69;;;4.76;82.13
18765;BME280;9511;54.242;12.448;2023-02-14T11:25:58;103560.56;;;4.83;82.05
18765;BME280;9511;54.242;12.448;2023-02-14T11:28:26;103559.13;;;4.86;82.12
18765;BME280;9511;54.242;12.448;2023-02-14T11:30:54;103564.78;;;4.91;82.22
18765;BME280;9511;54.242;12.448;2023-02-14T11:33:29;103554.69;;;4.58;82.13
18765;BME280;9511;54.242;12.448;2023-02-14T11:36:00;103541.53;;;4.66;81.82
18765;BME280;9511;54.242;12.448;2023-02-14T11:38:30;103544.50;;;4.61;81.53
18765;BME280;9511;54.242;12.448;2023-02-14T11:40:59;103537.44;;;4.78;81.77
18765;BME280;9511;54.242;12.448;2023-02-14T11:43:33;103537.16;;;4.94;81.72
18765;BME280;9511;54.242;12.448;2023-02-14T11:46:13;103536.03;;;4.82;81.73
18765;BME280;9511;54.242;12.448;2023-02-14T11:48:55;103527.94;;;4.89;80.94
18765;BME280;9511;54.242;12.448;2023-02-14T11:51:30;103515.09;;;4.92;81.33
18765;BME280;9511;54.242;12.448;2023-02-14T11:54:01;103522.69;;;4.89;81.48
18765;BME280;9511;54.242;12.448;2023-02-14T11:56:48;103517.00;;;5.03;81.41
18765;BME280;9511;54.242;12.448;2023-02-14T11:59:26;103506.03;;;4.89;80.80
18765;BME280;9511;54.242;12.448;2023-02-14T12:01:55;103504.25;;;4.98;81.29
18765;BME280;9511;54.242;12.448;2023-02-14T12:04:32;103500.78;;;5.07;81.10
18765;BME280;9511;54.242;12.448;2023-02-14T12:07:16;103502.31;;;5.24;81.33
18765;BME280;9511;54.242;12.448;2023-02-14T12:09:45;103500.84;;;5.18;81.22
18765;BME280;9511;54.242;12.448;2023-02-14T12:12:16;103499.75;;;5.16;81.42
18765;BME280;9511;54.242;12.448;2023-02-14T12:14:44;103493.47;;;5.14;80.92
18765;BME280;9511;54.242;12.448;2023-02-14T12:17:20;103491.13;;;4.98;80.35
18765;BME280;9511;54.242;12.448;2023-02-14T12:19:54;103490.94;;;4.86;80.89
18765;BME280;9511;54.242;12.448;2023-02-14T12:22:27;103487.31;;;4.75;81.14
18765;BME280;9511;54.242;12.448;2023-02-14T12:25:01;103488.53;;;4.79;81.57
18765;BME280;9511;54.242;12.448;2023-02-14T12:27:31;103481.28;;;4.95;81.66
18765;BME280;9511;54.242;12.448;2023-02-14T12:30:05;103482.91;;;5.03;82.21
18765;BME280;9511;54.242;12.448;2023-02-14T12:32:40;103483.19;;;5.06;81.68
18765;BME280;9511;54.242;12.448;2023-02-14T12:35:15;103481.69;;;5.19;82.03
18765;BME280;9511;54.242;12.448;2023-02-14T12:37:50;103477.47;;;5.21;81.48
18765;BME280;9511;54.242;12.448;2023-02-14T12:40:27;103472.28;;;5.02;81.13
18765;BME280;9511;54.242;12.448;2023-02-14T12:43:05;103475.59;;;5.10;81.18
18765;BME280;9511;54.242;12.448;2023-02-14T12:45:58;103466.16;;;5.12;80.89
18765;BME280;9511;54.242;12.448;2023-02-14T12:48:38;103464.34;;;5.21;81.01
18765;BME280;9511;54.242;12.448;2023-02-14T12:51:16;103459.81;;;4.99;80.91
18765;BME280;9511;54.242;12.448;2023-02-14T12:53:57;103464.47;;;5.12;81.05
18765;BME280;9511;54.242;12.448;2023-02-14T12:56:38;103453.72;;;5.19;80.96
18765;BME280;9511;54.242;12.448;2023-02-14T12:59:18;103445.53;;;5.35;81.05
18765;BME280;9511;54.242;12.448;2023-02-14T13:02:19;103450.50;;;5.32;80.53
18765;BME280;9511;54.242;12.448;2023-02-14T13:04:56;103437.13;;;5.29;80.47
18765;BME280;9511;54.242;12.448;2023-02-14T13:07:40;103438.03;;;5.29;79.94
18765;BME280;9511;54.242;12.448;2023-02-14T13:10:20;103428.31;;;5.28;79.91
18765;BME280;9511;54.242;12.448;2023-02-14T13:12:57;103419.78;;;5.31;79.96
18765;BME280;9511;54.242;12.448;2023-02-14T13:15:30;103414.00;;;5.25;80.12
18765;BME280;9511;54.242;12.448;2023-02-14T13:18:04;103417.28;;;5.32;80.27
18765;BME280;9511;54.242;12.448;2023-02-14T13:20:50;103421.63;;;5.32;80.22
18765;BME280;9511;54.242;12.448;2023-02-14T13:23:23;103405.59;;;5.19;79.80
18765;BME280;9511;54.242;12.448;2023-02-14T13:25:56;103410.16;;;5.21;79.99
18765;BME280;9511;54.242;12.448;2023-02-14T13:28:26;103406.41;;;5.28;80.27
18765;BME280;9511;54.242;12.448;2023-02-14T13:30:54;103411.03;;;5.41;80.41
18765;BME280;9511;54.242;12.448;2023-02-14T13:33:25;103408.28;;;5.39;79.72
18765;BME280;9511;54.242;12.448;2023-02-14T13:35:55;103400.91;;;5.35;80.13
18765;BME280;9511;54.242;12.448;2023-02-14T13:38:25;103400.94;;;5.45;80.14
18765;BME280;9511;54.242;12.448;2023-02-14T13:40:54;103394.66;;;5.53;80.10
18765;BME280;9511;54.242;12.448;2023-02-14T13:46:50;103385.59;;;5.60;80.11
18765;BME280;9511;54.242;12.448;2023-02-14T13:49:28;103388.50;;;5.63;80.13
18765;BME280;9511;54.242;12.448;2023-02-14T13:51:58;103381.53;;;5.53;79.88
18765;BME280;9511;54.242;12.448;2023-02-14T13:54:32;103385.03;;;5.44;79.84
18765;BME280;9511;54.242;12.448;2023-02-14T13:57:02;103380.72;;;5.44;79.87
18765;BME280;9511;54.242;12.448;2023-02-14T13:59:31;103382.56;;;5.45;80.05
18765;BME280;9511;54.242;12.448;2023-02-14T14:02:30;103376.00;;;5.40;79.87
18765;BME280;9511;54.242;12.448;2023-02-14T14:04:58;103374.22;;;5.20;80.01
18765;BME280;9511;54.242;12.448;2023-02-14T14:07:26;103373.84;;;5.26;80.58
18765;BME280;9511;54.242;12.448;2023-02-14T14:10:04;103372.75;;;5.14;80.76
18765;BME280;9511;54.242;12.448;2023-02-14T14:12:36;103379.09;;;5.26;80.89
18765;BME280;9511;54.242;12.448;2023-02-14T14:15:14;103368.06;;;5.20;80.97
18765;BME280;9511;54.242;12.448;2023-02-14T14:17:44;103364.16;;;5.35;81.53
18765;BME280;9511;54.242;12.448;2023-02-14T14:20:38;103365.75;;;5.43;81.37
18765;BME280;9511;54.242;12.448;2023-02-14T14:23:28;103366.53;;;5.42;81.29
18765;BME280;9511;54.242;12.448;2023-02-14T14:25:57;103358.25;;;5.38;81.31
18765;BME280;9511;54.242;12.448;2023-02-14T14:28:26;103355.38;;;5.35;81.40
18765;BME280;9511;54.242;12.448;2023-02-14T14:30:54;103359.19;;;5.38;81.61
18765;BME280;9511;54.242;12.448;2023-02-14T14:33:26;103360.00;;;5.47;82.00
18765;BME280;9511;54.242;12.448;2023-02-14T14:35:56;103350.53;;;5.49;81.53
18765;BME280;9511;54.242;12.448;2023-02-14T14:38:25;103347.53;;;5.55;81.65
18765;BME280;9511;54.242;12.448;2023-02-14T14:40:53;103344.63;;;5.42;81.60
18765;BME280;9511;54.242;12.448;2023-02-14T14:43:25;103341.34;;;5.44;81.58
18765;BME280;9511;54.242;12.448;2023-02-14T14:45:55;103342.78;;;5.41;81.53
18765;BME280;9511;54.242;12.448;2023-02-14T14:48:27;103328.88;;;5.42;81.92
18765;BME280;9511;54.242;12.448;2023-02-14T14:50:56;103336.63;;;5.40;81.90
18765;BME280;9511;54.242;12.448;2023-02-14T14:53:27;103332.00;;;5.38;81.99
18765;BME280;9511;54.242;12.448;2023-02-14T14:55:55;103332.94;;;5.38;81.62
18765;BME280;9511;54.242;12.448;2023-02-14T14:58:32;103333.59;;;5.36;81.42
18765;BME280;9511;54.242;12.448;2023-02-14T15:00:59;103335.56;;;5.38;81.51
18765;BME280;9511;54.242;12.448;2023-02-14T15:03:27;103327.03;;;5.41;81.43
18765;BME280;9511;54.242;12.448;2023-02-14T15:06:05;103328.22;;;5.44;81.53
18765;BME280;9511;54.242;12.448;2023-02-14T15:08:33;103324.28;;;5.49;81.92
18765;BME280;9511;54.242;12.448;2023-02-14T15:11:04;103318.38;;;5.42;81.84
18765;BME280;9511;54.242;12.448;2023-02-14T15:13:37;103322.97;;;5.44;81.65
18765;BME280;9511;54.242;12.448;2023-02-14T15:16:25;103317.97;;;5.37;81.42
18765;BME280;9511;54.242;12.448;2023-02-14T15:18:56;103317.72;;;5.34;82.13
18765;BME280;9511;54.242;12.448;2023-02-14T15:21:25;103309.56;;;5.31;82.59
18765;BME280;9511;54.242;12.448;2023-02-14T15:23:53;103302.72;;;5.33;82.70
18765;BME280;9511;54.242;12.448;2023-02-14T15:26:24;103308.78;;;5.32;82.71
18765;BME280;9511;54.242;12.448;2023-02-14T15:28:56;103302.88;;;5.24;82.41
18765;BME280;9511;54.242;12.448;2023-02-14T15:31:27;103299.84;;;5.20;82.40
18765;BME280;9511;54.242;12.448;2023-02-14T15:33:55;103293.03;;;5.22;82.77
18765;BME280;9511;54.242;12.448;2023-02-14T15:36:25;103295.50;;;5.20;83.10
18765;BME280;9511;54.242;12.448;2023-02-14T15:38:53;103296.16;;;5.07;83.01
18765;BME280;9511;54.242;12.448;2023-02-14T15:41:23;103293.53;;;5.07;83.24
18765;BME280;9511;54.242;12.448;2023-02-14T15:43:53;103292.59;;;5.07;83.40
18765;BME280;9511;54.242;12.448;2023-02-14T15:46:30;103280.91;;;5.03;83.74
18765;BME280;9511;54.242;12.448;2023-02-14T15:48:59;103290.78;;;5.06;83.88
18765;BME280;9511;54.242;12.448;2023-02-14T15:51:32;103288.78;;;4.93;83.87
18765;BME280;9511;54.242;12.448;2023-02-14T15:54:03;103282.59;;;4.93;83.97
18765;BME280;9511;54.242;12.448;2023-02-14T15:56:34;103282.59;;;4.93;84.03
18765;BME280;9511;54.242;12.448;2023-02-14T15:59:05;103281.66;;;4.92;84.21
18765;BME280;9511;54.242;12.448;2023-02-14T16:01:36;103283.25;;;4.90;84.40
18765;BME280;9511;54.242;12.448;2023-02-14T16:04:04;103277.72;;;4.87;84.74
18765;BME280;9511;54.242;12.448;2023-02-14T16:06:35;103284.28;;;4.82;84.86
18765;BME280;9511;54.242;12.448;2023-02-14T16:09:05;103291.88;;;4.79;85.29
18765;BME280;9511;54.242;12.448;2023-02-14T16:11:34;103288.44;;;4.80;85.36
18765;BME280;9511;54.242;12.448;2023-02-14T16:14:28;103285.41;;;4.75;85.46
18765;BME280;9511;54.242;12.448;2023-02-14T16:16:59;103281.88;;;4.75;85.49
18765;BME280;9511;54.242;12.448;2023-02-14T16:19:35;103280.16;;;4.65;86.09
18765;BME280;9511;54.242;12.448;2023-02-14T16:22:03;103269.25;;;4.61;85.81
18765;BME280;9511;54.242;12.448;2023-02-14T16:24:32;103269.75;;;4.57;86.50
18765;BME280;9511;54.242;12.448;2023-02-14T16:27:00;103274.75;;;4.53;86.77
18765;BME280;9511;54.242;12.448;2023-02-14T16:29:32;103271.72;;;4.49;86.57
18765;BME280;9511;54.242;12.448;2023-02-14T16:32:10;103272.56;;;4.39;86.84
18765;BME280;9511;54.242;12.448;2023-02-14T16:34:39;103285.13;;;4.33;86.89
18765;BME280;9511;54.242;12.448;2023-02-14T16:37:08;103272.47;;;4.19;87.46
18765;BME280;9511;54.242;12.448;2023-02-14T16:39:44;103277.44;;;4.16;87.89
18765;BME280;9511;54.242;12.448;2023-02-14T16:42:14;103276.44;;;4.05;88.26
18765;BME280;9511;54.242;12.448;2023-02-14T16:44:42;103261.09;;;3.99;88.41
18765;BME280;9511;54.242;12.448;2023-02-14T16:47:12;103266.06;;;3.96;88.88
18765;BME280;9511;54.242;12.448;2023-02-14T16:49:40;103260.25;;;3.90;88.83
18765;BME280;9511;54.242;12.448;2023-02-14T16:52:10;103271.09;;;3.85;88.83
18765;BME280;9511;54.242;12.448;2023-02-14T16:54:39;103266.81;;;3.77;88.66
18765;BME280;9511;54.242;12.448;2023-02-14T16:57:10;103269.66;;;3.69;88.91
18765;BME280;9511;54.242;12.448;2023-02-14T16:59:40;103270.78;;;3.63;89.31
18765;BME280;9511;54.242;12.448;2023-02-14T17:02:07;103269.91;;;3.54;89.48
18765;BME280;9511;54.242;12.448;2023-02-14T17:04:36;103276.28;;;3.47;89.06
18765;BME280;9511;54.242;12.448;2023-02-14T17:07:05;103277.09;;;3.37;89.07
18765;BME280;9511;54.242;12.448;2023-02-14T17:09:34;103275.16;;;3.26;89.26
18765;BME280;9511;54.242;12.448;2023-02-14T17:12:08;103288.16;;;3.16;89.39
18765;BME280;9511;54.242;12.448;2023-02-14T17:14:39;103277.47;;;3.04;89.59
18765;BME280;9511;54.242;12.448;2023-02-14T17:17:08;103279.03;;;2.93;89.88
18765;BME280;9511;54.242;12.448;2023-02-14T17:19:37;103273.84;;;2.85;89.76
18765;BME280;9511;54.242;12.448;2023-02-14T17:22:05;103271.09;;;2.75;90.05
18765;BME280;9511;54.242;12.448;2023-02-14T17:24:32;103271.91;;;2.65;90.08
18765;BME280;9511;54.242;12.448;2023-02-14T17:26:59;103271.47;;;2.52;90.29
18765;BME280;9511;54.242;12.448;2023-02-14T17:29:27;103275.03;;;2.44;90.62